Time;durP1;ratioP1;P1;durP2;ratioP2;P2;SDS_P1;SDS_P2;PMS_P1;PMS_P2;Temp;Humidity;BMP_temperature;BMP_pressure;BME280_temperature;BME280_humidity;BME280_pressure;Samples;Min_cycle;Max_cycle;Signal;HPM_P1;HPM_P2
2022/09/25 00:00:18;;;;;;;9.77;5.38;;;;;;;6.05;100.00;92675.31;2128644;27;20015;-68
2022/09/25 00:01:20;;;;;;;14.68;5.28;;;;;;;6.07;100.00;92672.28;2127038;27;20023;-68
2022/09/25 00:02:21;;;;;;;6.05;4.88;;;;;;;6.08;100.00;92676.41;2129343;27;20091;-68
2022/09/25 00:03:25;;;;;;;7.75;5.22;;;;;;;6.15;100.00;92678.25;2127192;27;20076;-68
2022/09/25 00:04:26;;;;;;;10.85;5.50;;;;;;;6.13;100.00;92677.88;2127384;27;20071;-68
2022/09/25 00:05:27;;;;;;;8.48;5.43;;;;;;;5.96;100.00;92677.69;2127026;27;20364;-68
2022/09/25 00:06:29;;;;;;;5.88;4.80;;;;;;;5.89;100.00;92677.00;2130966;27;20026;-68
2022/09/25 00:07:30;;;;;;;9.57;4.63;;;;;;;5.90;100.00;92676.59;2126855;27;20105;-68
2022/09/25 00:08:32;;;;;;;7.05;4.88;;;;;;;5.89;100.00;92684.97;2119672;27;20018;-68
2022/09/25 00:09:33;;;;;;;6.63;4.80;;;;;;;5.85;100.00;92676.28;2110110;27;20027;-70
2022/09/25 00:10:40;;;;;;;6.95;4.95;;;;;;;5.86;100.00;92681.19;2117813;27;20034;-68
2022/09/25 00:11:41;;;;;;;10.55;5.22;;;;;;;5.83;100.00;92679.31;2130118;27;20023;-68
2022/09/25 00:12:42;;;;;;;11.05;5.72;;;;;;;5.81;100.00;92676.31;2117814;27;20087;-68
2022/09/25 00:13:44;;;;;;;8.32;5.45;;;;;;;5.68;100.00;92683.28;2113782;27;20106;-68
2022/09/25 00:14:49;;;;;;;14.50;5.63;;;;;;;5.65;100.00;92676.09;2117938;27;20031;-70
2022/09/25 00:15:55;;;;;;;7.22;4.85;;;;;;;5.60;100.00;92679.19;2127135;27;20042;-69
2022/09/25 00:16:56;;;;;;;10.00;5.43;;;;;;;5.61;100.00;92676.13;2127182;27;20110;-68
2022/09/25 00:17:57;;;;;;;5.50;4.80;;;;;;;5.61;100.00;92681.44;2127220;27;20079;-68
2022/09/25 00:20:22;;;;;;;;;;;;;;;5.59;100.00;92675.03;2127501;27;20022;-68
2022/09/25 00:21:30;;;;;;;6.47;4.28;;;;;;;5.62;100.00;92676.88;2120559;27;20016;-69
2022/09/25 00:22:30;;;;;;;8.30;5.07;;;;;;;5.58;100.00;92668.25;2119139;27;20023;-69
2022/09/25 00:23:33;;;;;;;7.43;5.32;;;;;;;5.48;100.00;92670.59;2127006;27;20414;-68
2022/09/25 00:24:34;;;;;;;6.80;4.60;;;;;;;5.52;100.00;92666.00;2127166;27;20102;-68
2022/09/25 00:25:35;;;;;;;8.18;5.20;;;;;;;5.60;100.00;92672.00;2126761;27;20027;-67
2022/09/25 00:26:39;;;;;;;7.40;5.13;;;;;;;5.61;100.00;92668.19;2121428;27;20483;-69
2022/09/25 00:27:42;;;;;;;7.78;5.38;;;;;;;5.54;100.00;92678.88;2118506;27;20441;-67
2022/09/25 00:28:43;;;;;;;7.10;5.25;;;;;;;5.49;100.00;92672.13;2127094;27;20035;-68
2022/09/25 00:29:46;;;;;;;5.75;4.95;;;;;;;5.49;100.00;92671.38;2127037;27;20050;-68
2022/09/25 00:30:47;;;;;;;9.75;5.50;;;;;;;5.49;100.00;92669.47;2126599;27;20038;-68
2022/09/25 00:31:48;;;;;;;8.85;5.43;;;;;;;5.52;100.00;92673.22;2130531;27;20022;-68
2022/09/25 00:32:49;;;;;;;9.63;5.60;;;;;;;5.51;100.00;92674.34;2126867;27;20369;-68
2022/09/25 00:33:51;;;;;;;8.63;4.88;;;;;;;5.46;100.00;92677.44;2126978;27;20034;-68
2022/09/25 00:34:51;;;;;;;6.68;4.72;;;;;;;5.41;100.00;92680.53;2126971;27;20377;-69
2022/09/25 00:35:53;;;;;;;8.25;5.40;;;;;;;5.33;100.00;92673.78;2126923;27;20038;-69
2022/09/25 00:36:53;;;;;;;8.95;5.55;;;;;;;5.29;100.00;92679.84;2128699;27;20468;-68
2022/09/25 00:37:54;;;;;;;7.15;5.35;;;;;;;5.27;100.00;92668.91;2128137;27;20103;-69
2022/09/25 00:38:55;;;;;;;9.98;5.00;;;;;;;5.15;100.00;92673.94;2123681;27;20061;-68
2022/09/25 00:39:58;;;;;;;8.38;5.13;;;;;;;5.15;100.00;92680.00;2126878;27;20350;-68
2022/09/25 00:40:59;;;;;;;10.82;6.05;;;;;;;5.22;100.00;92668.56;2126955;27;20030;-67
2022/09/25 00:42:00;;;;;;;6.47;5.35;;;;;;;5.28;100.00;92669.66;2130106;27;20022;-69
2022/09/25 00:43:02;;;;;;;10.90;5.60;;;;;;;5.25;100.00;92673.09;2126490;27;20026;-69
2022/09/25 00:44:42;;;;;;;10.98;5.47;;;;;;;5.22;100.00;92664.03;2126879;27;20025;-67
2022/09/25 00:45:43;;;;;;;10.68;5.32;;;;;;;5.13;100.00;92658.41;2126993;27;20683;-69
2022/09/25 00:46:44;;;;;;;9.73;5.07;;;;;;;5.12;100.00;92666.75;2127418;27;20035;-68
2022/09/25 00:47:48;;;;;;;12.18;4.72;;;;;;;5.19;100.00;92669.38;2129013;27;20050;-67
2022/09/25 00:49:14;;;;;;;6.88;5.13;;;;;;;5.27;100.00;92662.88;2126663;27;20026;-68
2022/09/25 00:50:35;;;;;;;9.15;6.00;;;;;;;5.28;100.00;92669.66;2113389;27;20126;-68
2022/09/25 00:51:45;;;;;;;7.82;5.45;;;;;;;5.23;100.00;92670.84;2126838;27;20029;-68
2022/09/25 00:52:48;;;;;;;7.72;5.00;;;;;;;5.22;100.00;92660.63;2129752;27;20023;-68
2022/09/25 00:53:49;;;;;;;10.23;5.78;;;;;;;5.13;100.00;92663.72;2129029;27;20042;-71
2022/09/25 00:54:54;;;;;;;8.68;5.60;;;;;;;5.14;100.00;92664.50;2126555;27;20034;-69
2022/09/25 00:55:57;;;;;;;8.60;5.05;;;;;;;5.17;100.00;92663.69;2126132;27;20035;-69
2022/09/25 00:57:02;;;;;;;9.80;5.57;;;;;;;5.32;100.00;92656.38;2126749;27;20376;-68
2022/09/25 00:58:05;;;;;;;7.78;5.03;;;;;;;5.30;100.00;92660.16;2130975;27;20019;-67
2022/09/25 00:59:10;;;;;;;11.27;5.40;;;;;;;5.30;100.00;92656.75;2126212;27;20364;-68
2022/09/25 01:00:12;;;;;;;7.65;5.10;;;;;;;5.28;100.00;92659.06;2126410;27;20483;-68
2022/09/25 01:01:13;;;;;;;7.30;5.28;;;;;;;5.31;100.00;92652.97;2126664;27;20106;-68
2022/09/25 01:02:23;;;;;;;7.72;5.32;;;;;;;5.34;100.00;92649.53;2128569;27;20027;-67
2022/09/25 01:03:25;;;;;;;;;;;;;;;5.31;100.00;92652.97;2128567;27;20022;-70
2022/09/25 01:04:31;;;;;;;6.20;4.80;;;;;;;5.32;100.00;92651.84;2126218;27;20028;-70
2022/09/25 01:05:36;;;;;;;8.98;5.32;;;;;;;5.32;100.00;92651.84;2126583;27;20027;-69
2022/09/25 01:06:40;;;;;;;9.07;5.50;;;;;;;5.33;100.00;92648.03;2126647;27;20030;-68
2022/09/25 01:07:49;;;;;;;8.48;5.30;;;;;;;5.33;100.00;92649.94;2127165;27;20034;-68
2022/09/25 01:08:50;;;;;;;10.07;5.50;;;;;;;5.32;100.00;92646.53;2127748;27;20109;-67
2022/09/25 01:09:58;;;;;;;7.57;5.00;;;;;;;5.34;100.00;92646.88;2128043;27;20088;-70
2022/09/25 01:11:00;;;;;;;9.80;4.97;;;;;;;5.29;100.00;92645.41;2126205;27;20185;-70
2022/09/25 01:12:01;;;;;;;6.15;4.70;;;;;;;5.26;100.00;92643.53;2126499;27;20031;-68
2022/09/25 01:13:03;;;;;;;7.53;5.18;;;;;;;5.28;100.00;92643.91;2120497;27;20058;-68
2022/09/25 01:14:05;;;;;;;7.63;5.55;;;;;;;5.24;100.00;92640.53;2124244;27;20480;-68
2022/09/25 01:15:09;;;;;;;9.30;5.68;;;;;;;5.25;100.00;92631.44;2126437;27;20131;-68
2022/09/25 01:16:20;;;;;;;7.68;5.43;;;;;;;5.24;100.00;92634.50;2126492;27;20042;-68
2022/09/25 01:17:28;;;;;;;9.02;5.53;;;;;;;5.19;100.00;92627.72;2126316;27;20022;-68
2022/09/25 01:18:37;;;;;;;7.15;5.57;;;;;;;5.14;100.00;92630.81;2129829;27;20441;-69
2022/09/25 01:20:20;;;;;;;9.32;5.75;;;;;;;4.98;100.00;92631.31;2126513;27;20041;-69
2022/09/25 01:21:24;;;;;;;13.82;5.53;;;;;;;5.08;100.00;92632.34;2099714;28;20042;-71
2022/09/25 01:23:25;;;;;;;10.43;5.40;;;;;;;5.10;100.00;92624.03;2091570;28;20029;-68
2022/09/25 01:24:47;;;;;;;7.10;4.25;;;;;;;5.16;100.00;92625.09;2096803;27;20024;-70
2022/09/25 01:26:03;;;;;;;6.13;4.65;;;;;;;5.13;100.00;92623.97;2116880;27;20035;-68
2022/09/25 01:27:09;;;;;;;10.48;5.45;;;;;;;5.11;100.00;92620.97;2119547;27;20076;-68
2022/09/25 01:28:37;;;;;;;6.70;4.88;;;;;;;5.13;100.00;92620.59;2126529;27;20018;-68
2022/09/25 01:29:59;;;;;;;7.38;5.32;;;;;;;5.16;100.00;92619.81;2126452;27;20449;-68
2022/09/25 01:31:12;;;;;;;10.77;5.72;;;;;;;5.16;100.00;92614.50;2126159;27;20027;-69
2022/09/25 01:32:27;;;;;;;9.43;5.63;;;;;;;5.11;100.00;92620.97;2126692;27;20026;-68
2022/09/25 01:33:41;;;;;;;9.70;5.28;;;;;;;5.13;100.00;92621.34;2126530;27;20086;-69
2022/09/25 01:35:01;;;;;;;10.43;5.03;;;;;;;5.27;100.00;92626.50;2127822;27;20022;-69
2022/09/25 01:36:13;;;;;;;8.00;5.50;;;;;;;5.32;100.00;92633.28;2126532;27;20022;-69
2022/09/25 01:37:44;;;;;;;6.47;5.20;;;;;;;5.26;100.00;92629.53;2125989;27;20038;-68
2022/09/25 01:39:02;;;;;;;6.82;5.18;;;;;;;5.17;100.00;92640.59;2117401;27;20038;-68
2022/09/25 01:40:27;;;;;;;9.10;5.20;;;;;;;5.11;100.00;92638.78;2126482;27;20111;-68
2022/09/25 01:41:38;;;;;;;8.25;5.07;;;;;;;4.93;100.00;92631.75;2108911;28;20040;-67
2022/09/25 01:42:48;;;;;;;7.18;5.68;;;;;;;5.04;100.00;92627.09;2111855;27;20031;-71
2022/09/25 01:43:52;;;;;;;7.50;5.28;;;;;;;5.07;100.00;92635.41;2125591;27;20054;-68
2022/09/25 01:44:59;;;;;;;10.27;4.90;;;;;;;5.09;100.00;92633.09;2127604;27;20472;-68
2022/09/25 01:46:21;;;;;;;9.85;5.53;;;;;;;5.22;100.00;92626.94;2126011;27;20026;-68
2022/09/25 01:47:28;;;;;;;8.50;4.90;;;;;;;5.22;100.00;92631.47;2125646;27;20472;-67
2022/09/25 01:48:32;;;;;;;5.00;4.53;;;;;;;5.20;100.00;92631.13;2126356;27;20031;-71
2022/09/25 01:49:42;;;;;;;6.95;5.03;;;;;;;5.17;100.00;92632.66;2125978;27;20113;-68
2022/09/25 01:50:59;;;;;;;6.22;5.15;;;;;;;5.17;100.00;92630.00;2126218;27;20372;-68
2022/09/25 01:52:05;;;;;;;6.10;5.10;;;;;;;5.13;100.00;92625.88;2126511;27;20460;-70
2022/09/25 01:53:13;;;;;;;5.75;5.05;;;;;;;5.16;100.00;92619.81;2126288;27;20034;-68
2022/09/25 01:54:21;;;;;;;6.88;5.38;;;;;;;5.19;100.00;92622.44;2128817;27;20027;-68
2022/09/25 01:55:28;;;;;;;9.02;5.45;;;;;;;5.18;100.00;92615.63;2126389;27;20465;-69
2022/09/25 01:56:43;;;;;;;7.05;4.60;;;;;;;5.01;100.00;92617.28;2129886;27;20452;-68
2022/09/25 01:58:02;;;;;;;6.25;4.65;;;;;;;5.12;100.00;92613.78;2126343;27;20071;-67
2022/09/25 01:59:12;;;;;;;8.63;5.15;;;;;;;5.13;100.00;92620.59;2126318;27;20027;-68
2022/09/25 02:00:17;;;;;;;9.95;4.93;;;;;;;5.26;100.00;92624.25;2130137;27;20041;-68
2022/09/25 02:01:24;;;;;;;6.25;4.47;;;;;;;5.24;100.00;92619.34;2126356;27;20027;-69
2022/09/25 02:02:30;;;;;;;11.80;5.03;;;;;;;5.29;100.00;92618.91;2127987;27;20023;-68
2022/09/25 02:04:03;;;;;;;7.15;4.85;;;;;;;5.28;100.00;92614.75;2126402;27;20023;-70
2022/09/25 02:05:12;;;;;;;8.25;4.88;;;;;;;5.33;100.00;92615.47;2110332;27;20504;-68
2022/09/25 02:06:19;;;;;;;7.53;5.53;;;;;;;5.18;100.00;92612.97;2115737;27;20131;-68
2022/09/25 02:07:29;;;;;;;8.73;5.07;;;;;;;5.19;100.00;92611.81;2117975;27;20030;-68
2022/09/25 02:08:56;;;;;;;6.45;4.70;;;;;;;5.23;100.00;92612.53;2128420;27;20026;-70
2022/09/25 02:10:31;;;;;;;7.20;4.82;;;;;;;5.28;100.00;92606.81;2125328;27;20477;-68
2022/09/25 02:11:40;;;;;;;9.20;4.57;;;;;;;5.33;100.00;92610.19;2108835;27;20039;-68
2022/09/25 02:12:47;;;;;;;8.55;5.32;;;;;;;5.34;100.00;92615.06;2126174;27;20042;-68
2022/09/25 02:15:47;;;;;;;;;;;;;;;5.11;100.00;92604.34;2145737;27;20530;-69
2022/09/25 02:16:53;;;;;;;6.68;4.22;;;;;;;5.18;100.00;92606.91;2137074;27;20353;-70
2022/09/25 02:21:08;;;;;;;7.47;5.15;;;;;;;5.18;100.00;92614.84;2125439;27;20019;-67
2022/09/25 02:22:22;;;;;;;5.70;4.35;;;;;;;5.17;100.00;92618.66;2137093;27;20034;-68
2022/09/25 02:23:33;;;;;;;5.70;4.88;;;;;;;5.09;100.00;92617.97;2137696;27;20069;-67
2022/09/25 02:24:56;;;;;;;7.40;4.28;;;;;;;5.25;100.00;92620.09;2133841;27;20026;-67
2022/09/25 02:26:13;;;;;;;6.30;4.55;;;;;;;5.29;100.00;92621.56;2138026;27;20111;-71
2022/09/25 02:27:17;;;;;;;7.05;4.70;;;;;;;5.36;100.00;92625.31;2125932;27;20507;-67
2022/09/25 02:28:18;;;;;;;5.30;4.68;;;;;;;5.44;100.00;92632.75;2129327;27;20030;-67
2022/09/25 02:29:19;;;;;;;6.30;4.82;;;;;;;5.47;100.00;92631.97;2137619;27;20495;-70
2022/09/25 02:30:20;;;;;;;6.82;4.93;;;;;;;5.50;100.00;92638.41;2137692;27;20026;-73
2022/09/25 02:31:28;;;;;;;8.85;4.80;;;;;;;5.56;100.00;92629.59;2137832;27;20034;-71
2022/09/25 02:32:30;;;;;;;7.20;4.80;;;;;;;5.54;100.00;92626.63;2136917;27;20024;-67
2022/09/25 02:33:32;;;;;;;11.20;5.05;;;;;;;5.55;100.00;92627.38;2138050;27;20109;-69
2022/09/25 02:34:34;;;;;;;5.88;4.72;;;;;;;5.67;100.00;92634.06;2138095;27;20042;-69
2022/09/25 02:35:35;;;;;;;5.28;4.40;;;;;;;5.74;100.00;92633.97;2133300;27;20390;-67
2022/09/25 02:36:36;;;;;;;6.82;5.00;;;;;;;5.72;100.00;92633.63;2137564;27;20023;-67
2022/09/25 02:37:37;;;;;;;5.90;4.65;;;;;;;5.73;100.00;92629.81;2137174;27;20066;-69
2022/09/25 02:38:38;;;;;;;5.28;4.72;;;;;;;5.77;100.00;92633.94;2137743;27;20018;-69
2022/09/25 02:39:40;;;;;;;5.63;4.55;;;;;;;5.77;100.00;92625.22;2137877;27;20023;-70
2022/09/25 02:40:52;;;;;;;7.07;5.10;;;;;;;5.83;100.00;92628.94;2137465;27;20440;-69
2022/09/25 02:42:04;;;;;;;7.05;4.97;;;;;;;5.80;100.00;92619.13;2137590;27;20026;-70
2022/09/25 02:43:14;;;;;;;4.95;4.45;;;;;;;5.84;100.00;92625.16;2133433;27;20361;-68
2022/09/25 02:44:39;;;;;;;7.35;4.45;;;;;;;5.93;100.00;92617.50;2137922;27;20053;-67
2022/09/25 02:45:59;;;;;;;6.10;4.65;;;;;;;5.93;100.00;92614.84;2134626;27;20022;-69
2022/09/25 02:47:31;;;;;;;5.07;4.57;;;;;;;5.86;100.00;92614.13;2137807;27;20109;-67
2022/09/25 02:49:09;;;;;;;5.25;3.67;;;;;;;6.10;100.00;92623.69;2137752;27;20448;-72
2022/09/25 02:50:26;;;;;;;9.05;4.18;;;;;;;6.09;100.00;92619.53;2134572;27;20379;-70
2022/09/25 02:51:42;;;;;;;5.03;4.38;;;;;;;6.09;100.00;92621.44;2137785;27;20026;-70
2022/09/25 02:53:15;;;;;;;7.07;4.25;;;;;;;6.10;100.00;92610.44;2134172;27;20048;-67
2022/09/25 02:54:28;;;;;;;7.75;3.90;;;;;;;6.14;100.00;92615.69;2135289;27;20087;-69
2022/09/25 02:55:55;;;;;;;7.90;4.28;;;;;;;6.15;100.00;92620.63;2137745;27;20025;-68
2022/09/25 02:57:06;;;;;;;6.22;4.25;;;;;;;6.16;100.00;92621.38;2136949;27;20483;-68
2022/09/25 02:58:26;;;;;;;8.40;4.78;;;;;;;6.18;100.00;92619.81;2133607;27;20033;-71
2022/09/25 02:59:33;;;;;;;6.43;4.28;;;;;;;6.18;100.00;92616.41;2136527;27;20034;-69
2022/09/25 03:00:37;;;;;;;6.55;5.28;;;;;;;6.17;100.00;92612.25;2124460;27;20035;-69
2022/09/25 03:01:41;;;;;;;5.10;4.60;;;;;;;6.18;100.00;92608.44;2129096;27;20019;-69
2022/09/25 03:02:44;;;;;;;5.30;4.65;;;;;;;6.18;100.00;92617.16;2137541;27;20030;-69
2022/09/25 03:03:48;;;;;;;4.32;3.90;;;;;;;6.16;100.00;92614.16;2135155;27;20026;-71
2022/09/25 03:04:50;;;;;;;5.75;4.57;;;;;;;6.10;100.00;92614.97;2135302;27;20102;-69
2022/09/25 03:05:55;;;;;;;7.00;4.70;;;;;;;6.16;100.00;92605.44;2137763;27;20122;-70
2022/09/25 03:06:57;;;;;;;9.68;4.07;;;;;;;6.16;100.00;92608.09;2137696;27;20152;-71
2022/09/25 03:09:21;;;;;;;5.15;4.15;;;;;;;6.23;100.00;92606.13;2135963;27;20026;-71
2022/09/25 03:10:23;;;;;;;4.55;4.13;;;;;;;6.19;100.00;92602.75;2137142;27;20102;-69
2022/09/25 03:11:28;;;;;;;4.65;4.25;;;;;;;6.23;100.00;92608.00;2137351;27;20137;-72
2022/09/25 03:12:35;;;;;;;6.63;4.10;;;;;;;6.18;100.00;92597.81;2137504;27;20106;-69
2022/09/25 03:13:36;;;;;;;5.28;4.50;;;;;;;6.16;100.00;92597.50;2133711;27;20029;-70
2022/09/25 03:14:37;;;;;;;7.80;4.18;;;;;;;6.13;100.00;92601.69;2136783;27;20050;-70
2022/09/25 03:15:39;;;;;;;7.75;4.47;;;;;;;6.18;100.00;92603.88;2137605;27;20050;-69
2022/09/25 03:16:50;;;;;;;8.98;4.20;;;;;;;6.24;100.00;92598.91;2137651;27;20030;-68
2022/09/25 03:17:52;;;;;;;4.53;3.92;;;;;;;6.25;100.00;92597.75;2137120;27;20062;-69
2022/09/25 03:18:53;;;;;;;4.30;3.90;;;;;;;6.27;100.00;92587.47;2127931;27;20096;-68
2022/09/25 03:19:53;;;;;;;9.82;4.65;;;;;;;6.24;100.00;92607.59;2127839;27;20392;-71
2022/09/25 03:20:54;;;;;;;6.90;4.05;;;;;;;6.23;100.00;92603.47;2137685;27;20509;-70
2022/09/25 03:21:56;;;;;;;9.23;4.40;;;;;;;6.26;100.00;92599.22;2137511;27;20037;-70
2022/09/25 03:22:57;;;;;;;6.40;4.40;;;;;;;6.28;100.00;92603.00;2136760;27;20117;-72
2022/09/25 03:23:59;;;;;;;4.50;4.10;;;;;;;6.31;100.00;92599.53;2137402;27;20464;-69
2022/09/25 03:24:59;;;;;;;8.20;4.20;;;;;;;6.30;100.00;92603.34;2136593;27;20022;-71
2022/09/25 03:26:00;;;;;;;5.15;3.70;;;;;;;6.25;100.00;92595.84;2137392;27;20063;-69
2022/09/25 03:27:02;;;;;;;5.10;4.03;;;;;;;6.24;100.00;92597.00;2131950;27;20049;-70
2022/09/25 03:28:09;;;;;;;5.50;4.88;;;;;;;6.30;100.00;92602.59;2131785;27;20033;-71
2022/09/25 03:29:11;;;;;;;6.68;4.10;;;;;;;6.33;100.00;92604.44;2128063;27;20030;-70
2022/09/25 03:30:12;;;;;;;4.40;4.00;;;;;;;6.39;100.00;92602.84;2129545;27;20034;-69
2022/09/25 03:31:14;;;;;;;6.18;4.35;;;;;;;6.39;100.00;92592.22;2129078;27;20026;-70
2022/09/25 03:32:14;;;;;;;6.55;4.20;;;;;;;6.41;100.00;92599.78;2131682;27;20022;-68
2022/09/25 03:33:16;;;;;;;5.10;4.10;;;;;;;6.38;100.00;92592.63;2131634;27;20026;-70
2022/09/25 03:34:17;;;;;;;4.85;4.20;;;;;;;6.40;100.00;92590.31;2121959;27;20034;-70
2022/09/25 03:35:18;;;;;;;4.97;4.47;;;;;;;6.40;100.00;92593.72;2113097;28;20544;-69
2022/09/25 03:36:24;;;;;;;6.22;4.03;;;;;;;6.36;100.00;92602.88;2122691;27;20027;-70
2022/09/25 03:37:25;;;;;;;6.18;4.40;;;;;;;6.43;100.00;92600.13;2131829;27;20019;-69
2022/09/25 03:38:26;;;;;;;5.95;4.10;;;;;;;6.41;100.00;92600.56;2131643;27;20026;-68
2022/09/25 03:39:27;;;;;;;5.03;4.47;;;;;;;6.43;100.00;92606.19;2131140;27;20054;-68
2022/09/25 03:40:28;;;;;;;5.53;4.00;;;;;;;6.38;100.00;92601.34;2130810;27;20023;-70
2022/09/25 03:41:32;;;;;;;7.07;4.25;;;;;;;6.38;100.00;92601.34;2130864;27;20026;-70
2022/09/25 03:42:33;;;;;;;6.68;3.78;;;;;;;6.46;100.00;92602.00;2118176;27;20061;-70
2022/09/25 03:43:39;;;;;;;4.30;3.90;;;;;;;6.47;100.00;92609.56;2122711;27;20038;-69
2022/09/25 03:44:40;;;;;;;5.75;4.18;;;;;;;6.52;100.00;92600.38;2131771;27;20030;-70
2022/09/25 03:45:41;;;;;;;5.43;4.40;;;;;;;6.51;100.00;92599.63;2130891;27;20062;-70
2022/09/25 03:46:42;;;;;;;8.00;4.07;;;;;;;6.53;100.00;92602.63;2131366;27;20261;-70
2022/09/25 03:47:43;;;;;;;5.75;4.13;;;;;;;6.56;100.00;92596.53;2131695;27;20031;-68
2022/09/25 03:48:45;;;;;;;5.40;3.92;;;;;;;6.55;100.00;92600.34;2131574;27;20027;-68
2022/09/25 03:49:46;;;;;;;4.40;4.00;;;;;;;6.55;100.00;92600.34;2122247;27;20027;-69
2022/09/25 03:50:48;;;;;;;4.95;4.25;;;;;;;6.53;100.00;92599.22;2113738;28;20027;-68
2022/09/25 03:51:49;;;;;;;5.40;3.85;;;;;;;6.56;100.00;92593.88;2121641;27;20470;-69
2022/09/25 03:52:50;;;;;;;5.97;4.30;;;;;;;6.54;100.00;92593.53;2131098;27;20031;-71
2022/09/25 03:53:52;;;;;;;9.80;4.10;;;;;;;6.62;100.00;92593.41;2131530;27;20031;-71
2022/09/25 03:54:53;;;;;;;4.40;3.80;;;;;;;6.61;100.00;92584.69;2131325;27;20027;-71
2022/09/25 03:55:54;;;;;;;4.22;3.75;;;;;;;6.60;100.00;92591.16;2131425;27;20034;-69
2022/09/25 03:56:55;;;;;;;4.38;3.78;;;;;;;6.64;100.00;92591.84;2126830;27;20022;-68
2022/09/25 03:57:56;;;;;;;4.13;3.80;;;;;;;6.60;100.00;92585.84;2131619;27;20548;-69
2022/09/25 03:58:57;;;;;;;5.43;4.10;;;;;;;6.63;100.00;92590.38;2131116;27;20468;-68
2022/09/25 04:00:00;;;;;;;6.28;4.15;;;;;;;6.63;100.00;92579.75;2131185;27;20026;-68
2022/09/25 04:01:03;;;;;;;4.90;4.43;;;;;;;6.65;100.00;92582.72;2131535;27;20129;-70
2022/09/25 04:02:04;;;;;;;4.43;3.80;;;;;;;6.56;100.00;92585.16;2129537;27;20046;-68
2022/09/25 04:03:05;;;;;;;5.85;3.78;;;;;;;6.61;100.00;92581.28;2131251;27;20025;-69
2022/09/25 04:04:06;;;;;;;4.20;3.67;;;;;;;6.59;100.00;92581.69;2131546;27;20034;-68
2022/09/25 04:05:08;;;;;;;4.63;4.18;;;;;;;6.59;100.00;92581.69;2130921;27;20034;-69
2022/09/25 04:06:09;;;;;;;5.30;4.32;;;;;;;6.61;100.00;92583.94;2131185;27;20026;-69
2022/09/25 04:07:11;;;;;;;6.20;3.80;;;;;;;6.63;100.00;92581.63;2130219;27;20050;-69
2022/09/25 04:08:12;;;;;;;3.92;3.58;;;;;;;6.59;100.00;92586.25;2130823;27;20766;-69
2022/09/25 04:09:13;;;;;;;10.18;4.00;;;;;;;6.62;100.00;92585.44;2131252;27;20063;-69
2022/09/25 04:10:14;;;;;;;4.85;3.83;;;;;;;6.55;100.00;92587.06;2122069;27;20086;-69
2022/09/25 04:11:17;;;;;;;4.15;3.75;;;;;;;6.60;100.00;92585.09;2121809;27;20023;-70
2022/09/25 04:12:20;;;;;;;7.15;3.90;;;;;;;6.54;100.00;92584.78;2130182;27;20038;-69
2022/09/25 04:13:22;;;;;;;6.20;4.10;;;;;;;6.59;100.00;92592.31;2131220;27;20082;-69
2022/09/25 04:14:23;;;;;;;4.40;3.60;;;;;;;6.60;100.00;92587.75;2131547;27;20030;-69
2022/09/25 04:15:24;;;;;;;5.03;4.28;;;;;;;6.51;100.00;92596.22;2130883;27;20046;-69
2022/09/25 04:16:26;;;;;;;4.18;3.78;;;;;;;6.52;100.00;92590.50;2130881;27;20092;-71
2022/09/25 04:17:28;;;;;;;4.05;3.67;;;;;;;6.51;100.00;92588.25;2130392;27;20019;-69
2022/09/25 04:18:30;;;;;;;6.60;4.28;;;;;;;6.51;100.00;92588.25;2131393;27;20033;-70
2022/09/25 04:19:31;;;;;;;5.50;4.30;;;;;;;6.56;100.00;92588.56;2131268;27;20026;-68
2022/09/25 04:20:32;;;;;;;4.70;3.70;;;;;;;6.56;100.00;92593.13;2131412;27;20479;-67
2022/09/25 04:21:33;;;;;;;4.07;3.67;;;;;;;6.59;100.00;92587.00;2122168;27;20019;-67
2022/09/25 04:22:34;;;;;;;7.53;4.35;;;;;;;6.60;100.00;92599.13;2117348;27;20019;-69
2022/09/25 04:23:35;;;;;;;5.90;4.57;;;;;;;6.60;100.00;92599.13;2130823;27;20074;-68
2022/09/25 04:24:49;;;;;;;5.68;4.63;;;;;;;6.59;100.00;92594.22;2131325;27;20026;-68
2022/09/25 04:25:50;;;;;;;6.07;4.63;;;;;;;6.64;100.00;92591.13;2131350;27;20094;-67
2022/09/25 04:26:52;;;;;;;7.80;4.93;;;;;;;6.64;100.00;92599.81;2131294;27;20034;-67
2022/09/25 04:27:55;;;;;;;6.15;4.65;;;;;;;6.58;100.00;92598.75;2130877;27;20030;-68
2022/09/25 04:28:56;;;;;;;9.75;5.00;;;;;;;6.57;100.00;92592.72;2130462;27;20478;-68
2022/09/25 04:29:57;;;;;;;6.20;5.22;;;;;;;6.61;100.00;92602.53;2131152;27;20023;-68
2022/09/25 04:30:58;;;;;;;8.85;5.30;;;;;;;6.63;100.00;92602.88;2131230;27;20030;-68
2022/09/25 04:34:38;;;;;;;6.38;4.57;;;;;;;6.68;100.00;92602.44;2128189;27;20037;-70
2022/09/25 04:35:42;;;;;;;6.47;5.07;;;;;;;6.68;100.00;92605.09;2130880;27;20061;-68
2022/09/25 04:36:43;;;;;;;5.82;4.53;;;;;;;6.60;100.00;92596.47;2131079;27;20023;-68
2022/09/25 04:37:44;;;;;;;5.47;4.70;;;;;;;6.60;100.00;92604.44;2131226;27;20053;-68
2022/09/25 04:38:46;;;;;;;6.25;4.93;;;;;;;6.59;100.00;92602.94;2129677;27;20037;-68
2022/09/25 04:39:47;;;;;;;10.32;7.13;;;;;;;6.60;100.00;92606.34;2120701;27;20591;-68
2022/09/25 04:40:48;;;;;;;8.50;6.43;;;;;;;6.66;100.00;92607.38;2121764;27;20023;-68
2022/09/25 04:41:50;;;;;;;5.80;5.20;;;;;;;6.72;100.00;92606.53;2131287;27;20448;-68
2022/09/25 04:43:03;;;;;;;8.35;5.13;;;;;;;6.72;100.00;92609.19;2113305;28;20019;-68
2022/09/25 04:44:04;;;;;;;6.50;4.72;;;;;;;6.70;100.00;92606.16;2112822;27;20098;-69
2022/09/25 04:45:05;;;;;;;7.90;5.10;;;;;;;6.68;100.00;92610.41;2120591;27;20050;-68
2022/09/25 04:46:07;;;;;;;8.43;4.82;;;;;;;6.65;100.00;92613.84;2121666;27;20445;-68
2022/09/25 04:47:08;;;;;;;5.82;4.80;;;;;;;6.71;100.00;92612.97;2131082;27;20082;-68
2022/09/25 04:48:09;;;;;;;8.00;4.88;;;;;;;6.71;100.00;92609.56;2131045;27;20027;-68
2022/09/25 04:49:10;;;;;;;5.40;4.63;;;;;;;6.74;100.00;92611.44;2131173;27;20426;-68
2022/09/25 04:50:11;;;;;;;8.63;4.80;;;;;;;6.77;100.00;92611.38;2130217;27;20109;-71
2022/09/25 04:51:12;;;;;;;8.93;4.63;;;;;;;6.70;100.00;92614.13;2131103;27;20030;-67
2022/09/25 04:52:15;;;;;;;6.50;4.60;;;;;;;6.78;100.00;92615.53;2130784;27;20033;-69
2022/09/25 04:53:16;;;;;;;7.32;4.45;;;;;;;6.83;100.00;92614.31;2130621;27;20561;-69
2022/09/25 04:54:18;;;;;;;7.78;5.13;;;;;;;6.85;100.00;92612.03;2131037;27;20106;-68
2022/09/25 04:55:21;;;;;;;5.50;4.45;;;;;;;6.92;100.00;92614.56;2130511;27;20364;-68
2022/09/25 04:56:21;;;;;;;5.50;4.95;;;;;;;6.93;100.00;92618.72;2131163;27;20035;-68
2022/09/25 04:57:25;;;;;;;5.20;4.47;;;;;;;6.99;100.00;92616.34;2131086;27;20360;-68
2022/09/25 04:58:26;;;;;;;8.52;4.68;;;;;;;7.00;100.00;92610.63;2130366;27;20043;-68
2022/09/25 04:59:27;;;;;;;8.55;4.68;;;;;;;7.01;100.00;92608.72;2130755;27;20099;-68
2022/09/25 05:00:31;;;;;;;5.05;4.40;;;;;;;6.99;100.00;92611.03;2130330;27;20022;-69
2022/09/25 05:01:32;;;;;;;4.32;3.92;;;;;;;6.99;100.00;92608.38;2130922;27;20035;-67
2022/09/25 05:02:33;;;;;;;5.45;4.30;;;;;;;6.98;100.00;92614.84;2123729;27;20087;-67
2022/09/25 05:03:34;;;;;;;5.53;4.32;;;;;;;6.95;100.00;92607.69;2121469;27;20793;-68
2022/09/25 05:04:35;;;;;;;7.57;4.55;;;;;;;7.00;100.00;92601.91;2130603;27;20022;-68
2022/09/25 05:05:36;;;;;;;6.25;4.68;;;;;;;7.02;100.00;92599.59;2130133;27;20445;-69
2022/09/25 05:06:37;;;;;;;5.30;4.80;;;;;;;6.97;100.00;92603.47;2131051;27;20064;-67
2022/09/25 05:07:38;;;;;;;8.05;4.57;;;;;;;6.95;100.00;92599.72;2131002;27;20027;-71
2022/09/25 05:08:39;;;;;;;6.88;5.07;;;;;;;6.94;100.00;92604.28;2130858;27;20098;-71
2022/09/25 05:09:40;;;;;;;5.70;5.13;;;;;;;6.93;100.00;92600.09;2130495;27;20409;-67
2022/09/25 05:10:42;;;;;;;9.75;5.95;;;;;;;7.02;100.00;92605.69;2129932;27;20045;-68
2022/09/25 05:11:45;;;;;;;7.00;6.00;;;;;;;6.99;100.00;92617.09;2121300;27;20422;-69
2022/09/25 05:12:47;;;;;;;13.52;9.73;;;;;;;7.02;100.00;92620.84;2121682;27;20062;-67
2022/09/25 05:13:51;;;;;;;10.20;7.57;;;;;;;6.89;100.00;92618.03;2130833;27;20035;-68
2022/09/25 05:14:52;;;;;;;8.52;6.78;;;;;;;6.90;100.00;92618.78;2130533;27;20031;-72
2022/09/25 05:15:54;;;;;;;6.03;5.43;;;;;;;6.88;100.00;92618.44;2130083;27;20465;-68
2022/09/25 05:16:54;;;;;;;7.53;5.53;;;;;;;6.95;100.00;92616.41;2121612;27;20034;-69
2022/09/25 05:18:10;;;;;;;5.07;4.55;;;;;;;6.99;100.00;92613.69;2121292;27;20027;-70
2022/09/25 05:19:11;;;;;;;7.22;4.97;;;;;;;6.93;100.00;92624.03;2127371;27;20034;-71
2022/09/25 05:20:12;;;;;;;6.35;4.93;;;;;;;6.93;100.00;92615.31;2130824;27;20570;-70